Time,TemperatureF,DewpointF,PressureIn,WindDirection,WindDirectionDegrees,WindSpeedMPH,WindSpeedGustMPH,Humidity,HourlyPrecipIn,Conditions,Clouds,dailyrainin,SolarRadiationWatts/m^2,SoftwareType,DateUTC
2013-02-20 00:21:00,14.0,10.0,-100.00,NNE,19,4.0,9.0,85,0.00,,,0.00,0.000000,,2013-02-20 09:21:00,
2013-02-20 00:31:00,14.0,10.0,-100.00,NNE,19,4.0,9.0,85,0.00,,,0.00,0.000000,,2013-02-20 09:31:00,
2013-02-20 00:41:00,14.0,10.0,-100.00,NNE,19,4.0,9.0,85,0.00,,,0.00,0.000000,,2013-02-20 09:41:00,
2013-02-20 00:51:00,14.0,10.0,-100.00,NNE,19,4.0,9.0,85,0.00,,,0.00,0.000000,,2013-02-20 09:51:00,
2013-02-20 01:21:00,15.0,11.0,-100.00,North,1,3.0,9.0,85,0.00,,,0.00,0.000000,,2013-02-20 10:21:00,
2013-02-20 01:31:00,15.0,11.0,-100.00,North,1,3.0,9.0,85,0.00,,,0.00,0.000000,,2013-02-20 10:31:00,
2013-02-20 01:41:00,15.0,11.0,-100.00,North,1,3.0,9.0,85,0.00,,,0.00,0.000000,,2013-02-20 10:41:00,
2013-02-20 01:51:00,15.0,11.0,-100.00,North,1,3.0,9.0,85,0.00,,,0.00,0.000000,,2013-02-20 10:51:00,
2013-02-20 02:21:00,15.0,11.0,-100.00,North,5,3.0,9.0,85,0.00,,,0.00,0.000000,,2013-02-20 11:21:00,
2013-02-20 02:32:00,15.0,11.0,-100.00,North,5,3.0,9.0,85,0.00,,,0.00,0.000000,,2013-02-20 11:32:00,
2013-02-20 02:41:00,15.0,11.0,-100.00,North,5,3.0,9.0,85,0.00,,,0.00,0.000000,,2013-02-20 11:41:00,
2013-02-20 02:52:00,15.0,11.0,-100.00,North,5,3.0,9.0,85,0.00,,,0.00,0.000000,,2013-02-20 11:52:00,
2013-02-20 03:21:00,15.0,11.0,-100.00,NNE,17,3.0,9.0,85,0.00,,,0.00,0.000000,,2013-02-20 12:21:00,
2013-02-20 03:31:00,15.0,11.0,-100.00,NNE,17,3.0,9.0,85,0.00,,,0.00,0.000000,,2013-02-20 12:31:00,
2013-02-20 03:42:00,15.0,11.0,-100.00,NNE,17,3.0,9.0,85,0.00,,,0.00,0.000000,,2013-02-20 12:42:00,
2013-02-20 03:52:00,15.0,11.0,-100.00,NNE,17,3.0,9.0,85,0.00,,,0.00,0.000000,,2013-02-20 12:52:00,
2013-02-20 04:22:00,15.0,11.0,-100.00,North,10,3.0,9.0,85,0.00,,,0.00,0.000000,,2013-02-20 13:22:00,
2013-02-20 04:31:00,15.0,11.0,-100.00,North,10,3.0,9.0,85,0.00,,,0.00,0.000000,,2013-02-20 13:31:00,
2013-02-20 04:42:00,15.0,11.0,-100.00,North,10,3.0,9.0,85,0.00,,,0.00,0.000000,,2013-02-20 13:42:00,
2013-02-20 04:51:00,15.0,11.0,-100.00,North,10,3.0,9.0,85,0.00,,,0.00,0.000000,,2013-02-20 13:51:00,
2013-02-20 05:21:00,16.0,12.0,-100.00,North,358,4.0,10.0,84,0.00,,,0.00,0.000000,,2013-02-20 14:21:00,
2013-02-20 05:32:00,16.0,12.0,-100.00,North,358,4.0,10.0,84,0.00,,,0.00,0.000000,,2013-02-20 14:32:00,
2013-02-20 05:42:00,16.0,12.0,-100.00,North,358,4.0,10.0,84,0.00,,,0.00,0.000000,,2013-02-20 14:42:00,
2013-02-20 05:52:00,16.0,12.0,-100.00,North,358,4.0,10.0,84,0.00,,,0.00,0.000000,,2013-02-20 14:52:00,
2013-02-20 06:22:00,16.0,12.0,-100.00,North,1,4.0,10.0,85,0.00,,,0.00,0.000000,,2013-02-20 15:22:00,
2013-02-20 06:32:00,16.0,12.0,-100.00,North,1,4.0,10.0,85,0.00,,,0.00,0.000000,,2013-02-20 15:32:00,
2013-02-20 06:41:00,16.0,12.0,-100.00,North,1,4.0,10.0,85,0.00,,,0.00,0.000000,,2013-02-20 15:41:00,
2013-02-20 06:51:00,16.0,12.0,-100.00,North,1,4.0,10.0,85,0.00,,,0.00,0.000000,,2013-02-20 15:51:00,
2013-02-20 07:21:00,16.0,12.0,-100.00,NNE,25,3.0,12.0,83,0.00,,,0.00,0.000000,,2013-02-20 16:21:00,
2013-02-20 07:32:00,16.0,12.0,-100.00,NNE,25,3.0,12.0,83,0.00,,,0.00,0.000000,,2013-02-20 16:32:00,
2013-02-20 07:41:00,16.0,12.0,-100.00,NNE,25,3.0,12.0,83,0.00,,,0.00,0.000000,,2013-02-20 16:41:00,
2013-02-20 07:51:00,16.0,12.0,-100.00,NNE,25,3.0,12.0,83,0.00,,,0.00,0.000000,,2013-02-20 16:51:00,
2013-02-20 08:11:00,15.0,11.0,-100.00,ENE,58,2.0,5.0,83,-99.99,,,-99.99,,,2013-02-20 17:11:00,
2013-02-20 08:21:00,15.0,11.0,-100.00,ENE,58,2.0,6.0,83,0.00,,,0.00,0.000000,,2013-02-20 17:21:00,
2013-02-20 08:32:00,15.0,11.0,-100.00,ENE,58,2.0,6.0,83,0.00,,,0.00,0.000000,,2013-02-20 17:32:00,
2013-02-20 08:41:00,15.0,11.0,-100.00,ENE,58,2.0,6.0,83,0.00,,,0.00,0.000000,,2013-02-20 17:41:00,
2013-02-20 08:52:00,15.0,11.0,-100.00,ENE,58,2.0,6.0,83,0.00,,,0.00,0.000000,,2013-02-20 17:52:00,
2013-02-20 09:21:00,16.0,12.0,-100.00,NNE,32,2.0,5.0,83,0.00,,,0.00,0.000000,,2013-02-20 18:21:00,
2013-02-20 09:31:00,16.0,12.0,-100.00,NNE,32,2.0,5.0,83,0.00,,,0.00,0.000000,,2013-02-20 18:31:00,
2013-02-20 09:41:00,16.0,12.0,-100.00,NNE,32,2.0,5.0,83,0.00,,,0.00,0.000000,,2013-02-20 18:41:00,
2013-02-20 09:51:00,16.0,12.0,-100.00,NNE,32,2.0,5.0,83,0.00,,,0.00,0.000000,,2013-02-20 18:51:00,
2013-02-20 10:21:00,18.0,13.0,-100.00,NNE,24,3.0,5.0,79,0.00,,,0.00,3.000000,,2013-02-20 19:21:00,
2013-02-20 10:31:00,18.0,13.0,-100.00,NNE,24,3.0,5.0,79,0.00,,,0.00,3.000000,,2013-02-20 19:31:00,
2013-02-20 10:41:00,18.0,13.0,-100.00,NNE,24,3.0,5.0,79,0.00,,,0.00,3.000000,,2013-02-20 19:41:00,
2013-02-20 10:51:00,18.0,13.0,-100.00,NNE,24,3.0,5.0,79,0.00,,,0.00,3.000000,,2013-02-20 19:51:00,
2013-02-20 11:11:00,21.0,15.0,-100.00,NNE,28,2.0,5.0,76,-99.99,,,-99.99,,,2013-02-20 20:11:00,
2013-02-20 11:21:00,21.0,15.0,-100.00,NNE,28,2.0,6.0,76,0.00,,,0.00,5.000000,,2013-02-20 20:21:00,
2013-02-20 11:31:00,21.0,15.0,-100.00,NNE,28,2.0,6.0,76,0.00,,,0.00,5.000000,,2013-02-20 20:31:00,
2013-02-20 11:41:00,21.0,15.0,-100.00,NNE,28,2.0,6.0,76,0.00,,,0.00,5.000000,,2013-02-20 20:41:00,
2013-02-20 11:51:00,21.0,15.0,-100.00,NNE,28,2.0,6.0,76,0.00,,,0.00,5.000000,,2013-02-20 20:51:00,
2013-02-20 12:21:00,23.0,15.0,-100.00,NNE,22,3.0,8.0,70,0.00,,,0.00,10.000000,,2013-02-20 21:21:00,
2013-02-20 12:31:00,23.0,15.0,-100.00,NNE,22,3.0,8.0,70,0.00,,,0.00,10.000000,,2013-02-20 21:31:00,
2013-02-20 12:41:00,23.0,15.0,-100.00,NNE,22,3.0,8.0,70,0.00,,,0.00,10.000000,,2013-02-20 21:41:00,
2013-02-20 12:51:00,23.0,15.0,-100.00,NNE,22,3.0,8.0,70,0.00,,,0.00,10.000000,,2013-02-20 21:51:00,
2013-02-20 13:21:00,25.0,15.0,-100.00,NNE,23,3.0,7.0,65,0.00,,,0.00,12.000000,,2013-02-20 22:21:00,
2013-02-20 13:31:00,25.0,15.0,-100.00,NNE,23,3.0,7.0,65,0.00,,,0.00,12.000000,,2013-02-20 22:31:00,
2013-02-20 13:41:00,25.0,15.0,-100.00,NNE,23,3.0,7.0,65,0.00,,,0.00,12.000000,,2013-02-20 22:41:00,
2013-02-20 13:51:00,25.0,15.0,-100.00,NNE,23,3.0,7.0,65,0.00,,,0.00,12.000000,,2013-02-20 22:51:00,
2013-02-20 14:12:00,27.0,17.0,-100.00,NNE,17,2.0,5.0,65,-99.99,,,-99.99,,,2013-02-20 23:12:00,
2013-02-20 14:22:00,27.0,17.0,-100.00,NNE,17,2.0,6.0,65,0.00,,,0.00,12.000000,,2013-02-20 23:22:00,
2013-02-20 14:31:00,27.0,17.0,-100.00,NNE,17,2.0,6.0,65,0.00,,,0.00,12.000000,,2013-02-20 23:31:00,
2013-02-20 14:42:00,27.0,17.0,-100.00,NNE,17,2.0,6.0,65,0.00,,,0.00,12.000000,,2013-02-20 23:42:00,
2013-02-20 14:52:00,27.0,17.0,-100.00,NNE,17,2.0,6.0,65,0.00,,,0.00,12.000000,,2013-02-20 23:52:00,
2013-02-20 15:21:00,27.0,17.0,-100.00,NE,45,2.0,6.0,65,0.00,,,0.00,10.000000,,2013-02-21 00:21:00,
2013-02-20 15:32:00,27.0,17.0,-100.00,NE,45,2.0,6.0,65,0.00,,,0.00,10.000000,,2013-02-21 00:32:00,
2013-02-20 15:41:00,27.0,17.0,-100.00,NE,45,2.0,6.0,65,0.00,,,0.00,10.000000,,2013-02-21 00:41:00,
2013-02-20 15:52:00,27.0,17.0,-100.00,NE,45,2.0,6.0,65,0.00,,,0.00,10.000000,,2013-02-21 00:52:00,
2013-02-20 16:21:00,27.0,17.0,-100.00,NE,50,2.0,5.0,65,0.00,,,0.00,9.000000,,2013-02-21 01:21:00,
2013-02-20 16:32:00,27.0,17.0,-100.00,NE,50,2.0,5.0,65,0.00,,,0.00,9.000000,,2013-02-21 01:32:00,
2013-02-20 16:41:00,27.0,17.0,-100.00,NE,50,2.0,5.0,65,0.00,,,0.00,9.000000,,2013-02-21 01:41:00,
2013-02-20 16:51:00,27.0,17.0,-100.00,NE,50,2.0,5.0,65,0.00,,,0.00,9.000000,,2013-02-21 01:51:00,
2013-02-20 17:21:00,25.0,18.0,-100.00,ENE,59,1.0,4.0,73,0.00,,,0.00,7.000000,,2013-02-21 02:21:00,
2013-02-20 17:32:00,25.0,18.0,-100.00,ENE,59,1.0,4.0,73,0.00,,,0.00,7.000000,,2013-02-21 02:32:00,
2013-02-20 17:42:00,25.0,18.0,-100.00,ENE,59,1.0,4.0,73,0.00,,,0.00,7.000000,,2013-02-21 02:42:00,
2013-02-20 17:51:00,25.0,18.0,-100.00,ENE,59,1.0,4.0,73,0.00,,,0.00,7.000000,,2013-02-21 02:51:00,
2013-02-20 18:21:00,20.0,15.0,-100.00,ESE,107,0.0,2.0,82,0.00,,,0.00,2.000000,,2013-02-21 03:21:00,
2013-02-20 18:31:00,20.0,15.0,-100.00,ESE,107,0.0,2.0,82,0.00,,,0.00,2.000000,,2013-02-21 03:31:00,
2013-02-20 18:41:00,20.0,15.0,-100.00,ESE,107,0.0,2.0,82,0.00,,,0.00,2.000000,,2013-02-21 03:41:00,
2013-02-20 18:51:00,20.0,15.0,-100.00,ESE,107,0.0,2.0,82,0.00,,,0.00,2.000000,,2013-02-21 03:51:00,
2013-02-20 19:21:00,17.0,14.0,-100.00,ESE,102,0.0,0.0,86,0.00,,,0.00,0.000000,,2013-02-21 04:21:00,
2013-02-20 19:31:00,17.0,14.0,-100.00,ESE,102,0.0,0.0,86,0.00,,,0.00,0.000000,,2013-02-21 04:31:00,
2013-02-20 19:41:00,17.0,14.0,-100.00,ESE,102,0.0,0.0,86,0.00,,,0.00,0.000000,,2013-02-21 04:41:00,
2013-02-20 19:51:00,17.0,14.0,-100.00,ESE,102,0.0,0.0,86,0.00,,,0.00,0.000000,,2013-02-21 04:51:00,
2013-02-20 20:22:00,15.0,12.0,-100.00,East,92,1.0,2.0,87,0.00,,,0.00,0.000000,,2013-02-21 05:22:00,
2013-02-20 20:33:00,15.0,12.0,-100.00,East,92,1.0,2.0,87,0.00,,,0.00,0.000000,,2013-02-21 05:33:00,
2013-02-20 20:43:00,15.0,12.0,-100.00,East,92,1.0,2.0,87,0.00,,,0.00,0.000000,,2013-02-21 05:43:00,
2013-02-20 20:52:00,15.0,12.0,-100.00,East,92,1.0,2.0,87,0.00,,,0.00,0.000000,,2013-02-21 05:52:00,
2013-02-20 21:11:00,14.0,11.0,-100.00,East,99,0.0,0.0,87,0.00,,,0.00,0.000000,,2013-02-21 06:11:00,
2013-02-20 21:21:00,14.0,11.0,-100.00,East,99,0.0,0.0,87,0.00,,,0.00,0.000000,,2013-02-21 06:21:00,
2013-02-20 21:31:00,14.0,11.0,-100.00,East,99,0.0,0.0,87,0.00,,,0.00,0.000000,,2013-02-21 06:31:00,
2013-02-20 21:41:00,14.0,11.0,-100.00,East,99,0.0,0.0,87,0.00,,,0.00,0.000000,,2013-02-21 06:41:00,
2013-02-20 21:51:00,14.0,11.0,-100.00,East,99,0.0,0.0,87,0.00,,,0.00,0.000000,,2013-02-21 06:51:00,
2013-02-20 22:11:00,13.0,10.0,-100.00,East,82,0.0,0.0,87,-99.99,,,-99.99,,,2013-02-21 07:11:00,
2013-02-20 23:11:00,13.0,10.0,-100.00,East,84,0.0,0.0,87,-99.99,,,-99.99,,,2013-02-21 08:11:00,